Time,TemperatureF,DewpointF,PressureIn,WindDirection,WindDirectionDegrees,WindSpeedMPH,WindSpeedGustMPH,Humidity,HourlyPrecipIn,Conditions,Clouds,dailyrainin,SolarRadiationWatts/m^2,SoftwareType,DateUTC
2013-10-12 00:02:00,63.0,53.0,-100.00,SSE,153,11.0,21.0,69,0.00,,,0.00,0.000000,,2013-10-12 05:02:00,
2013-10-12 00:23:00,63.0,53.0,-100.00,SSE,153,11.0,21.0,69,0.00,,,0.00,0.000000,,2013-10-12 05:23:00,
2013-10-12 00:34:00,63.0,53.0,-100.00,SSE,153,11.0,21.0,69,0.00,,,0.00,0.000000,,2013-10-12 05:34:00,
2013-10-12 00:43:00,63.0,53.0,-100.00,SSE,153,11.0,21.0,69,0.00,,,0.00,0.000000,,2013-10-12 05:43:00,
2013-10-12 00:52:00,63.0,53.0,-100.00,SSE,153,11.0,21.0,69,0.00,,,0.00,0.000000,,2013-10-12 05:52:00,
2013-10-12 01:02:00,63.0,53.0,-100.00,SSE,162,9.0,22.0,69,0.00,,,0.00,0.000000,,2013-10-12 06:02:00,
2013-10-12 01:42:00,63.0,53.0,-100.00,SSE,162,9.0,22.0,69,0.00,,,0.00,0.000000,,2013-10-12 06:42:00,
2013-10-12 01:52:00,63.0,53.0,-100.00,SSE,162,9.0,22.0,69,0.00,,,0.00,0.000000,,2013-10-12 06:52:00,
2013-10-12 02:02:00,63.0,52.0,-100.00,SSE,162,8.0,23.0,68,0.00,,,0.00,0.000000,,2013-10-12 07:02:00,
2013-10-12 02:22:00,63.0,52.0,-100.00,SSE,162,8.0,23.0,68,0.00,,,0.00,0.000000,,2013-10-12 07:22:00,
2013-10-12 02:32:00,63.0,52.0,-100.00,SSE,162,8.0,23.0,68,0.00,,,0.00,0.000000,,2013-10-12 07:32:00,
2013-10-12 02:42:00,63.0,52.0,-100.00,SSE,162,8.0,23.0,68,0.00,,,0.00,0.000000,,2013-10-12 07:42:00,
2013-10-12 02:52:00,63.0,52.0,-100.00,SSE,162,8.0,23.0,68,0.00,,,0.00,0.000000,,2013-10-12 07:52:00,
2013-10-12 03:02:00,63.0,53.0,-100.00,SSE,161,8.0,20.0,69,0.00,,,0.00,0.000000,,2013-10-12 08:02:00,
2013-10-12 03:23:00,63.0,53.0,-100.00,SSE,161,8.0,20.0,69,0.00,,,0.00,0.000000,,2013-10-12 08:23:00,
2013-10-12 03:32:00,63.0,53.0,-100.00,SSE,161,8.0,20.0,69,0.00,,,0.00,0.000000,,2013-10-12 08:32:00,
2013-10-12 03:42:00,63.0,53.0,-100.00,SSE,161,8.0,20.0,69,0.00,,,0.00,0.000000,,2013-10-12 08:42:00,
2013-10-12 03:52:00,63.0,53.0,-100.00,SSE,161,8.0,20.0,69,0.00,,,0.00,0.000000,,2013-10-12 08:52:00,
2013-10-12 04:02:00,62.0,52.0,-100.00,South,171,9.0,17.0,71,0.00,,,0.00,0.000000,,2013-10-12 09:02:00,
2013-10-12 04:22:00,62.0,52.0,-100.00,South,171,9.0,17.0,71,0.00,,,0.00,0.000000,,2013-10-12 09:22:00,
2013-10-12 04:33:00,62.0,52.0,-100.00,South,171,9.0,17.0,71,0.00,,,0.00,0.000000,,2013-10-12 09:33:00,
2013-10-12 04:43:00,62.0,52.0,-100.00,South,171,9.0,17.0,71,0.00,,,0.00,0.000000,,2013-10-12 09:43:00,
2013-10-12 04:54:00,62.0,52.0,-100.00,South,171,9.0,17.0,71,0.00,,,0.00,0.000000,,2013-10-12 09:54:00,
2013-10-12 05:02:00,62.0,53.0,-100.00,South,172,7.0,18.0,73,0.00,,,0.00,0.000000,,2013-10-12 10:02:00,
2013-10-12 05:42:00,62.0,53.0,-100.00,South,172,7.0,18.0,73,0.00,,,0.00,0.000000,,2013-10-12 10:42:00,
2013-10-12 05:52:00,62.0,53.0,-100.00,South,172,7.0,18.0,73,0.00,,,0.00,0.000000,,2013-10-12 10:52:00,
2013-10-12 06:42:00,62.0,54.0,-100.00,South,187,8.0,20.0,74,0.00,,,0.00,0.000000,,2013-10-12 11:42:00,
2013-10-12 06:52:00,62.0,54.0,-100.00,South,187,8.0,20.0,74,0.00,,,0.00,0.000000,,2013-10-12 11:52:00,
2013-10-12 07:01:00,62.0,54.0,-100.00,South,187,8.0,20.0,74,0.00,,,0.00,0.000000,,2013-10-12 12:01:00,
2013-10-12 07:02:00,56.0,49.0,-100.00,SSW,206,7.0,18.0,78,0.00,,,0.00,0.000000,,2013-10-12 12:02:00,
2013-10-12 07:42:00,56.0,49.0,-100.00,SSW,206,7.0,18.0,78,0.00,,,0.00,0.000000,,2013-10-12 12:42:00,
2013-10-12 07:52:00,56.0,49.0,-100.00,SSW,206,7.0,18.0,78,0.00,,,0.00,0.000000,,2013-10-12 12:52:00,
2013-10-12 08:02:00,52.0,44.0,-100.00,SW,217,7.0,23.0,73,0.00,,,0.00,17.000000,,2013-10-12 13:02:00,
2013-10-12 08:42:00,52.0,44.0,-100.00,SW,217,7.0,23.0,73,0.00,,,0.00,17.000000,,2013-10-12 13:42:00,
2013-10-12 08:52:00,52.0,44.0,-100.00,SW,217,7.0,23.0,73,0.00,,,0.00,17.000000,,2013-10-12 13:52:00,
2013-10-12 09:02:00,51.0,43.0,-100.00,SSW,205,7.0,18.0,73,0.00,,,0.00,62.000000,,2013-10-12 14:02:00,
2013-10-12 09:42:00,51.0,43.0,-100.00,SSW,205,7.0,18.0,73,0.00,,,0.00,62.000000,,2013-10-12 14:42:00,
2013-10-12 09:52:00,51.0,43.0,-100.00,SSW,205,7.0,18.0,73,0.00,,,0.00,62.000000,,2013-10-12 14:52:00,
2013-10-12 10:02:00,55.0,43.0,-100.00,SW,221,9.0,18.0,63,0.00,,,0.00,254.000000,,2013-10-12 15:02:00,
2013-10-12 10:22:00,55.0,43.0,-100.00,SW,221,9.0,18.0,63,0.00,,,0.00,254.000000,,2013-10-12 15:22:00,
2013-10-12 10:33:00,55.0,43.0,-100.00,SW,221,9.0,18.0,63,0.00,,,0.00,254.000000,,2013-10-12 15:33:00,
2013-10-12 10:44:00,55.0,43.0,-100.00,SW,221,9.0,18.0,63,0.00,,,0.00,254.000000,,2013-10-12 15:44:00,
2013-10-12 10:54:00,55.0,43.0,-100.00,SW,221,9.0,18.0,63,0.00,,,0.00,254.000000,,2013-10-12 15:54:00,
2013-10-12 11:02:00,55.0,41.0,-100.00,SW,226,10.0,19.0,59,0.00,,,0.00,461.000000,,2013-10-12 16:02:00,
2013-10-12 11:43:00,55.0,41.0,-100.00,SW,226,10.0,19.0,59,0.00,,,0.00,461.000000,,2013-10-12 16:43:00,
2013-10-12 11:53:00,55.0,41.0,-100.00,SW,226,10.0,19.0,59,0.00,,,0.00,461.000000,,2013-10-12 16:53:00,
2013-10-12 12:02:00,56.0,41.0,-100.00,SW,220,8.0,18.0,58,0.00,,,0.00,598.000000,,2013-10-12 17:02:00,
2013-10-12 12:42:00,56.0,41.0,-100.00,SW,220,8.0,18.0,58,0.00,,,0.00,598.000000,,2013-10-12 17:42:00,
2013-10-12 12:53:00,56.0,41.0,-100.00,SW,220,8.0,18.0,58,0.00,,,0.00,598.000000,,2013-10-12 17:53:00,
2013-10-12 13:22:00,57.0,41.0,-100.00,SW,222,9.0,20.0,54,0.00,,,0.00,491.000000,,2013-10-12 18:22:00,
2013-10-12 13:32:00,57.0,41.0,-100.00,SW,222,9.0,20.0,54,0.00,,,0.00,491.000000,,2013-10-12 18:32:00,
2013-10-12 13:42:00,57.0,41.0,-100.00,SW,222,9.0,20.0,54,0.00,,,0.00,491.000000,,2013-10-12 18:42:00,
2013-10-12 13:52:00,57.0,41.0,-100.00,SW,222,9.0,20.0,54,0.00,,,0.00,491.000000,,2013-10-12 18:52:00,
2013-10-12 14:01:00,57.0,41.0,-100.00,SW,222,9.0,20.0,54,0.00,,,0.00,491.000000,,2013-10-12 19:01:00,
2013-10-12 14:02:00,56.0,41.0,-100.00,SW,222,9.0,22.0,56,0.00,,,0.00,374.000000,,2013-10-12 19:02:00,
2013-10-12 14:42:00,56.0,41.0,-100.00,SW,222,9.0,22.0,56,0.00,,,0.00,374.000000,,2013-10-12 19:42:00,
2013-10-12 14:52:00,56.0,41.0,-100.00,SW,222,9.0,22.0,56,0.00,,,0.00,374.000000,,2013-10-12 19:52:00,
2013-10-12 15:02:00,54.0,39.0,-100.00,SW,231,9.0,25.0,57,0.00,,,0.00,157.000000,,2013-10-12 20:02:00,
2013-10-12 15:43:00,54.0,39.0,-100.00,SW,231,9.0,25.0,57,0.00,,,0.00,157.000000,,2013-10-12 20:43:00,
2013-10-12 15:52:00,54.0,39.0,-100.00,SW,231,9.0,25.0,57,0.00,,,0.00,157.000000,,2013-10-12 20:52:00,
2013-10-12 16:02:00,52.0,39.0,-100.00,SW,225,6.0,21.0,61,0.00,,,0.00,71.000000,,2013-10-12 21:02:00,
2013-10-12 16:22:00,52.0,39.0,-100.00,SW,225,6.0,21.0,61,0.00,,,0.00,71.000000,,2013-10-12 21:22:00,
2013-10-12 16:35:00,52.0,39.0,-100.00,SW,225,6.0,21.0,61,0.00,,,0.00,71.000000,,2013-10-12 21:35:00,
2013-10-12 16:43:00,52.0,39.0,-100.00,SW,225,6.0,21.0,61,0.00,,,0.00,71.000000,,2013-10-12 21:43:00,
2013-10-12 16:54:00,52.0,39.0,-100.00,SW,225,6.0,21.0,61,0.00,,,0.00,71.000000,,2013-10-12 21:54:00,
2013-10-12 17:02:00,52.0,39.0,-100.00,SW,216,9.0,21.0,60,0.00,,,0.00,69.000000,,2013-10-12 22:02:00,
2013-10-12 17:43:00,52.0,39.0,-100.00,SW,216,9.0,21.0,60,0.00,,,0.00,69.000000,,2013-10-12 22:43:00,
2013-10-12 17:54:00,52.0,39.0,-100.00,SW,216,9.0,21.0,60,0.00,,,0.00,69.000000,,2013-10-12 22:54:00,
2013-10-12 18:22:00,50.0,38.0,-100.00,SW,229,8.0,17.0,64,0.00,,,0.00,7.000000,,2013-10-12 23:22:00,
2013-10-12 18:33:00,50.0,38.0,-100.00,SW,229,8.0,17.0,64,0.00,,,0.00,7.000000,,2013-10-12 23:33:00,
2013-10-12 18:42:00,50.0,38.0,-100.00,SW,229,8.0,17.0,64,0.00,,,0.00,7.000000,,2013-10-12 23:42:00,
2013-10-12 18:52:00,50.0,38.0,-100.00,SW,229,8.0,17.0,64,0.00,,,0.00,7.000000,,2013-10-12 23:52:00,
2013-10-12 19:01:00,50.0,38.0,-100.00,SW,229,8.0,17.0,64,0.00,,,0.00,7.000000,,2013-10-13 00:01:00,
2013-10-12 19:22:00,48.0,39.0,-100.00,WSW,247,8.0,19.0,70,0.00,,,0.00,1.000000,,2013-10-13 00:22:00,
2013-10-12 19:32:00,48.0,39.0,-100.00,WSW,247,8.0,19.0,70,0.00,,,0.00,1.000000,,2013-10-13 00:32:00,
2013-10-12 19:42:00,48.0,39.0,-100.00,WSW,247,8.0,19.0,70,0.00,,,0.00,1.000000,,2013-10-13 00:42:00,
2013-10-12 19:52:00,48.0,39.0,-100.00,WSW,247,8.0,19.0,70,0.00,,,0.00,1.000000,,2013-10-13 00:52:00,
2013-10-12 20:01:00,48.0,39.0,-100.00,WSW,247,8.0,19.0,70,0.00,,,0.00,1.000000,,2013-10-13 01:01:00,
2013-10-12 20:02:00,46.0,41.0,-100.00,SW,233,6.0,18.0,81,0.00,,,0.00,0.000000,,2013-10-13 01:02:00,
2013-10-12 20:42:00,46.0,41.0,-100.00,SW,233,6.0,18.0,81,0.00,,,0.00,0.000000,,2013-10-13 01:42:00,
2013-10-12 20:52:00,46.0,41.0,-100.00,SW,233,6.0,18.0,81,0.00,,,0.00,0.000000,,2013-10-13 01:52:00,
2013-10-12 21:02:00,46.0,42.0,-100.00,SW,233,6.0,15.0,85,0.00,,,0.00,0.000000,,2013-10-13 02:02:00,
2013-10-12 21:43:00,46.0,42.0,-100.00,SW,233,6.0,15.0,85,0.00,,,0.00,0.000000,,2013-10-13 02:43:00,
2013-10-12 21:52:00,46.0,42.0,-100.00,SW,233,6.0,15.0,85,0.00,,,0.00,0.000000,,2013-10-13 02:52:00,
2013-10-12 22:02:00,-999.0,-99.9,-100.00,WSW,250,5.0,12.0,-999,-99.99,,,-99.99,0.000000,,2013-10-13 03:02:00,
2013-10-12 22:45:00,45.0,43.0,-100.00,WSW,250,5.0,12.0,94,0.00,,,-99.99,0.000000,,2013-10-13 03:45:00,
2013-10-12 22:54:00,45.0,43.0,-100.00,WSW,250,5.0,12.0,94,0.00,,,-99.99,0.000000,,2013-10-13 03:54:00,
2013-10-12 23:02:00,46.0,43.0,-100.00,WSW,254,5.0,13.0,90,0.00,,,-99.99,0.000000,,2013-10-13 04:02:00,
2013-10-12 23:24:00,46.0,43.0,-100.00,WSW,254,5.0,13.0,90,0.00,,,-99.99,0.000000,,2013-10-13 04:24:00,
2013-10-12 23:34:00,46.0,43.0,-100.00,WSW,254,5.0,13.0,90,0.00,,,-99.99,0.000000,,2013-10-13 04:34:00,
2013-10-12 23:43:00,46.0,43.0,-100.00,WSW,254,5.0,13.0,90,0.00,,,-99.99,0.000000,,2013-10-13 04:43:00,
2013-10-12 23:54:00,46.0,43.0,-100.00,WSW,254,5.0,13.0,90,0.00,,,-99.99,0.000000,,2013-10-13 04:54:00,